MSC Giovanna — 3FRB9 — position and weather

sailwx.info

Track history (hours):
 
Tides and Currents Weather Stations Pressure Air Temp Water Temp Dewpoint Dewpoint Depression Visibility Wind Speed Wind Dir Waves Ship Positions

MSC Giovanna

Last reported at 2015-Jan-29 23:31 UTC. Time now 2015-Jan-30 00:29 UTC.
Position N 37°57' E 023°36'.

Length 178 m; draft 9.5 m.

Type: Cargo ship. MMSI: 357702000.

Date/timePositionNaut miles runAvg speedWind from/ knotsBaromVisibWave heightAir tempDewpointWater temp
2015-Jan-29 23:31N 37°57' E 023°36'0 0.0
2015-Jan-29 22:31N 37°57' E 023°36'0 0.0
2015-Jan-29 21:31N 37°57' E 023°36'0 0.0
2015-Jan-29 20:31N 37°57' E 023°36'3 2.7
2015-Jan-29 19:33N 37°55' E 023°36'10 9.6
2015-Jan-29 18:33N 37°46' E 023°42'6215.1
2015-Jan-29 14:27N 37°14' E 024°48'1516.0
2015-Jan-29 13:32N 37°15' E 025°07'1816.3
2015-Jan-29 12:27N 37°15' E 025°29'1416.3
2015-Jan-29 11:33N 37°11' E 025°47'  
2015-Jan-26 21:08N 37°11' E 025°49'2314.4
2015-Jan-26 19:34N 37°15' E 025°20'1515.1
2015-Jan-26 18:34N 37°14' E 025°01'7313.4
2015-Jan-26 13:05N 37°47' E 023°38'713.9
2015-Jan-26 12:34N 37°54' E 023°37'4 3.5
2015-Jan-26 11:29N 37°57' E 023°36'0 0.0
2015-Jan-26 10:26N 37°57' E 023°36'0 0.0
2015-Jan-26 09:32N 37°57' E 023°36'0 0.0
2015-Jan-26 08:29N 37°57' E 023°36'0 0.0
2015-Jan-26 07:32N 37°57' E 023°36'0 0.0
2015-Jan-26 06:32N 37°57' E 023°36'0 0.0
2015-Jan-26 05:29N 37°57' E 023°36'0 0.0
2015-Jan-26 04:32N 37°57' E 023°36'0 0.0
2015-Jan-26 03:32N 37°57' E 023°36'0 0.0
2015-Jan-26 02:32N 37°57' E 023°36'0 0.0
2015-Jan-26 01:32N 37°57' E 023°36'0 0.0
2015-Jan-26 00:32N 37°57' E 023°36'0 0.0
2015-Jan-25 23:32N 37°57' E 023°36'0 0.0
2015-Jan-25 22:32N 37°57' E 023°36'0 0.0
2015-Jan-25 21:32N 37°57' E 023°36'0 0.0
2015-Jan-25 20:32N 37°57' E 023°36'0 0.0
2015-Jan-25 19:29N 37°57' E 023°36'0 0.0
2015-Jan-25 17:05N 37°57' E 023°36'0 0.0
2015-Jan-25 16:26N 37°57' E 023°36'0 0.0
2015-Jan-25 14:07N 37°57' E 023°36'2 3.5
2015-Jan-25 13:33N 37°55' E 023°36'1 0.5
2015-Jan-25 12:33N 37°55' E 023°36'3 3.3
2015-Jan-25 11:33N 37°52' E 023°35'9 9.0
2015-Jan-25 10:33N 37°43' E 023°35'1 1.4
2015-Jan-25 09:33N 37°42' E 023°35'0 0.3
2015-Jan-25 08:27N 37°41' E 023°35'5 0.9
2015-Jan-25 03:13N 37°46' E 023°37'1 1.0
2015-Jan-25 02:32N 37°45' E 023°36'6 2.1
2015-Jan-24 23:29N 37°40' E 023°40'6312.7
2015-Jan-24 18:33N 37°14' E 024°52'1413.5
2015-Jan-24 17:33N 37°15' E 025°09'1513.7
2015-Jan-24 16:26N 37°15' E 025°28'1214.1
2015-Jan-24 15:33N 37°12' E 025°43'1414.1
2015-Jan-24 14:32N 37°06' E 025°59'1615.0
2015-Jan-24 13:29N 36°56' E 026°15'3014.8
2015-Jan-24 11:30N 36°41' E 026°46'  
2015-Jan-21 14:30N 34°28' E 032°15'1415.0
2015-Jan-21 13:33N 34°15' E 032°24'1814.4
2015-Jan-21 12:17N 33°60' E 032°35'1314.6
2015-Jan-21 11:25N 33°48' E 032°42'1914.8
2015-Jan-21 10:06N 33°32' E 032°53'3915.1
2015-Jan-21 07:33N 32°58' E 033°16'1717.3
2015-Jan-21 06:34N 32°43' E 033°26'1515.4
2015-Jan-21 05:34N 32°29' E 033°35'  
Track history (hours):
 
Tides and Currents Weather Stations Pressure Air Temp Water Temp Dewpoint Dewpoint Depression Visibility Wind Speed Wind Dir Waves Ship Positions

MSC Giovanna

Last reported at 2015-Jan-29 23:31 UTC. Time now 2015-Jan-30 00:29 UTC.
Position N 37°57' E 023°36'.

Length 178 m; draft 9.5 m.

Type: Cargo ship. MMSI: 357702000.

Date/timePositionNaut miles runAvg speedWind from/ knotsBaromVisibWave heightAir tempDewpointWater temp
2015-Jan-29 23:31N 37°57' E 023°36'0 0.0
2015-Jan-29 22:31N 37°57' E 023°36'0 0.0
2015-Jan-29 21:31N 37°57' E 023°36'0 0.0
2015-Jan-29 20:31N 37°57' E 023°36'3 2.7
2015-Jan-29 19:33N 37°55' E 023°36'10 9.6
2015-Jan-29 18:33N 37°46' E 023°42'6215.1
2015-Jan-29 14:27N 37°14' E 024°48'1516.0
2015-Jan-29 13:32N 37°15' E 025°07'1816.3
2015-Jan-29 12:27N 37°15' E 025°29'1416.3
2015-Jan-29 11:33N 37°11' E 025°47'  
2015-Jan-26 21:08N 37°11' E 025°49'2314.4
2015-Jan-26 19:34N 37°15' E 025°20'1515.1
2015-Jan-26 18:34N 37°14' E 025°01'7313.4
2015-Jan-26 13:05N 37°47' E 023°38'713.9
2015-Jan-26 12:34N 37°54' E 023°37'4 3.5
2015-Jan-26 11:29N 37°57' E 023°36'0 0.0
2015-Jan-26 10:26N 37°57' E 023°36'0 0.0
2015-Jan-26 09:32N 37°57' E 023°36'0 0.0
2015-Jan-26 08:29N 37°57' E 023°36'0 0.0
2015-Jan-26 07:32N 37°57' E 023°36'0 0.0
2015-Jan-26 06:32N 37°57' E 023°36'0 0.0
2015-Jan-26 05:29N 37°57' E 023°36'0 0.0
2015-Jan-26 04:32N 37°57' E 023°36'0 0.0
2015-Jan-26 03:32N 37°57' E 023°36'0 0.0
2015-Jan-26 02:32N 37°57' E 023°36'0 0.0
2015-Jan-26 01:32N 37°57' E 023°36'0 0.0
2015-Jan-26 00:32N 37°57' E 023°36'0 0.0
2015-Jan-25 23:32N 37°57' E 023°36'0 0.0
2015-Jan-25 22:32N 37°57' E 023°36'0 0.0
2015-Jan-25 21:32N 37°57' E 023°36'0 0.0
2015-Jan-25 20:32N 37°57' E 023°36'0 0.0
2015-Jan-25 19:29N 37°57' E 023°36'0 0.0
2015-Jan-25 17:05N 37°57' E 023°36'0 0.0
2015-Jan-25 16:26N 37°57' E 023°36'0 0.0
2015-Jan-25 14:07N 37°57' E 023°36'2 3.5
2015-Jan-25 13:33N 37°55' E 023°36'1 0.5
2015-Jan-25 12:33N 37°55' E 023°36'3 3.3
2015-Jan-25 11:33N 37°52' E 023°35'9 9.0
2015-Jan-25 10:33N 37°43' E 023°35'1 1.4
2015-Jan-25 09:33N 37°42' E 023°35'0 0.3
2015-Jan-25 08:27N 37°41' E 023°35'5 0.9
2015-Jan-25 03:13N 37°46' E 023°37'1 1.0
2015-Jan-25 02:32N 37°45' E 023°36'6 2.1
2015-Jan-24 23:29N 37°40' E 023°40'6312.7
2015-Jan-24 18:33N 37°14' E 024°52'1413.5
2015-Jan-24 17:33N 37°15' E 025°09'1513.7
2015-Jan-24 16:26N 37°15' E 025°28'1214.1
2015-Jan-24 15:33N 37°12' E 025°43'1414.1
2015-Jan-24 14:32N 37°06' E 025°59'1615.0
2015-Jan-24 13:29N 36°56' E 026°15'3014.8
2015-Jan-24 11:30N 36°41' E 026°46'  
2015-Jan-21 14:30N 34°28' E 032°15'1415.0
2015-Jan-21 13:33N 34°15' E 032°24'1814.4
2015-Jan-21 12:17N 33°60' E 032°35'1314.6
2015-Jan-21 11:25N 33°48' E 032°42'1914.8
2015-Jan-21 10:06N 33°32' E 032°53'3915.1
2015-Jan-21 07:33N 32°58' E 033°16'1717.3
2015-Jan-21 06:34N 32°43' E 033°26'1515.4
2015-Jan-21 05:34N 32°29' E 033°35'  

Dump ship's entire track history